Airfield :
LOGIN :

Register | Disclaimer

   EN    FR    IT 

 










Legend :    VFR   Marginal VFR   IFR   Intensive IFR   Very Intensive IFR
Visi :
Ceiling :
>= 8 km
>= 3000ft
5 to 8 km
1000 to 3000 ft
1500m to 5 km
500 to 1000 ft
800 to 1500m
200 to 500 ft
< 800m
< 200 ft
Symbols :   Thunderstorms  Fog  Heavy snow  Heavy precipitations  Wind > 20 kt
SIGMETs :     Misc.  Thunderstorms  Icing  Turbulence  Mountain Waves  Volcanic Ashes







- Airport Elevation : 74 ft
- IATA code : MRS
- Download approach charts


LFML - Marseille / Marignane

CURRENT METAR :
  • 220400Z AUTO 00000KT CAVOK 15/12 Q1019 NOSIG

EXPIRED METARs :
  • 220330Z AUTO VRB01KT 9999 FEW023 15/11 Q1019 NOSIG
  • 220300Z AUTO 15002KT 9999 FEW021 15/12 Q1019 NOSIG
  • 220230Z AUTO 08003KT 050V120 9999 FEW025 SCT032 15/13 Q1019 NOSIG
  • 220200Z AUTO 17001KT 9999 FEW028 15/12 Q1019 TEMPO BKN013 BKN020
  • 220130Z AUTO 15003KT 9999 SCT025 15/12 Q1019 TEMPO BKN013 BKN020

TAF TAF LFML
Valid from the 22 at 03:00 until the 23 at 09:00 UTC


220200Z 2203/2309 VRB05KT CAVOK
TEMPO 2203/2209 SCT013 BKN025
TEMPO 2209/2214 30006KT
TEMPO 2214/2218 20006KT
TEMPO 2306/2309 BKN017 TX24/2215Z TN14/2203Z
ATIS : +33 4 42 31 15 15
No reported NOTAMs for that airfield.



MET'MAP, your aeronautical weather chart ! - Copyright ORBIFLY December 2007 - Disclaimer

ORBIFLY MET'MAP TEAM :

Programming & Development : Alexandra Zaïnal
Concept & Development : Baudouin d'Aumeries
Co-Development & Prog : Marc-Olivier Méhu
Technical & hardware support : Manuel Goepfert

Contact : metmap@orbifly.com




SOURCES & CREDITS :

   NOAA